Terminal Aerodrome Forecast
Issued by NWS Twin Cities, MN

Home | Current Version | Previous Version | Text Only | Print | Product List | Glossary Off
Versions: 1 2 3 4 5 6 7 8 9 10 11 12 13 14 15 16

000
FTUS43 KMPX 230546
TAFEAU
TAF
KEAU 230546Z 2306/2406 16006KT P6SM SCT250
     FM230900 17009KT P6SM SCT050 BKN120
     FM231500 18014G22KT P6SM SCT025 BKN050
      TEMPO 2320/2324 3SM TSRA BKN025CB
     FM240000 19010KT 4SM -RA BKN040=

USA.gov is the U.S. government's official web portal to all federal, state and local government web resources and services.